ANA18 RJOO-RJTT
Flight info
| Callsign | ANA18 |
|---|---|
| Flight time | 1h 2m |
| Altitude | 27000 |
| Route | ASUKA SHTLE Y71 XAC |
| Aircraft | A321/M-SDE3FGHIRWY/LB1 |
Departure
| Time | 2026-05-04 06:03 |
|---|---|
| Airport | Osaka Itami International Airport (RJOO) |
Arrival
| Time | 2026-05-04 07:05 |
|---|---|
| Airport | Tokyo Haneda International Airport (RJTT) |
| Time | Latitude | Longitude | Altitude | Speed | Heading |
|---|---|---|---|---|---|
| 2026-05-04 05:25 | 34.79122 | 135.43929 | 50 ft | 0 kts | 73° |
| 2026-05-04 05:51 | 34.79115 | 135.43860 | 45 ft | 4 kts | 106° |
| 2026-05-04 05:51 | 34.79130 | 135.43837 | 48 ft | 0 kts | 173° |
| 2026-05-04 05:56 | 34.79107 | 135.43828 | 50 ft | 10 kts | 210° |
| 2026-05-04 05:56 | 34.79047 | 135.43742 | 50 ft | 14 kts | 218° |
| 2026-05-04 05:56 | 34.78953 | 135.43747 | 49 ft | 17 kts | 144° |
| 2026-05-04 05:57 | 34.78842 | 135.43882 | 48 ft | 27 kts | 135° |
| 2026-05-04 05:57 | 34.78708 | 135.44041 | 47 ft | 27 kts | 135° |
| 2026-05-04 05:57 | 34.78578 | 135.44198 | 47 ft | 26 kts | 135° |
| 2026-05-04 05:57 | 34.78472 | 135.44321 | 48 ft | 16 kts | 148° |
| 2026-05-04 05:58 | 34.78353 | 135.44335 | 44 ft | 19 kts | 180° |
| 2026-05-04 05:58 | 34.78186 | 135.44340 | 48 ft | 25 kts | 162° |
| 2026-05-04 05:58 | 34.78058 | 135.44478 | 48 ft | 24 kts | 135° |
| 2026-05-04 05:58 | 34.77942 | 135.44618 | 48 ft | 23 kts | 135° |
| 2026-05-04 05:59 | 34.77830 | 135.44755 | 48 ft | 22 kts | 135° |
| 2026-05-04 05:59 | 34.77722 | 135.44885 | 50 ft | 22 kts | 135° |
| 2026-05-04 05:59 | 34.77618 | 135.45012 | 50 ft | 21 kts | 135° |
| 2026-05-04 05:59 | 34.77516 | 135.45134 | 50 ft | 20 kts | 135° |
| 2026-05-04 06:00 | 34.77418 | 135.45252 | 50 ft | 19 kts | 135° |
| 2026-05-04 06:00 | 34.77301 | 135.45299 | 50 ft | 18 kts | 201° |
| 2026-05-04 06:00 | 34.77256 | 135.45176 | 51 ft | 17 kts | 280° |
| 2026-05-04 06:00 | 34.77328 | 135.45052 | 51 ft | 25 kts | 315° |
| 2026-05-04 06:01 | 34.77624 | 135.44694 | 46 ft | 94 kts | 315° |
| 2026-05-04 06:01 | 34.78220 | 135.43972 | 48 ft | 145 kts | 315° |
| 2026-05-04 06:03 | 34.75555 | 135.39745 | 2476 ft | 279 kts | 128° |
| 2026-05-04 06:03 | 34.74909 | 135.42006 | 3174 ft | 291 kts | 90° |
| 2026-05-04 06:05 | 34.78387 | 135.58554 | 8965 ft | 322 kts | 93° |
| 2026-05-04 06:05 | 34.78177 | 135.64100 | 10268 ft | 340 kts | 95° |
| 2026-05-04 06:05 | 34.78066 | 135.67072 | 10482 ft | 363 kts | 95° |
| 2026-05-04 06:06 | 34.77948 | 135.70238 | 10677 ft | 386 kts | 95° |
| 2026-05-04 06:06 | 34.77828 | 135.73557 | 11112 ft | 399 kts | 95° |
| 2026-05-04 06:06 | 34.77709 | 135.76959 | 11687 ft | 406 kts | 96° |
| 2026-05-04 06:06 | 34.77585 | 135.80417 | 12252 ft | 414 kts | 97° |
| 2026-05-04 06:07 | 34.77457 | 135.83947 | 12826 ft | 422 kts | 97° |
| 2026-05-04 06:07 | 34.77325 | 135.87540 | 13431 ft | 429 kts | 98° |
| 2026-05-04 06:07 | 34.77188 | 135.91202 | 13970 ft | 436 kts | 98° |
| 2026-05-04 06:07 | 34.77048 | 135.94915 | 14480 ft | 443 kts | 98° |
| 2026-05-04 06:08 | 34.76903 | 135.98684 | 15038 ft | 449 kts | 99° |
| 2026-05-04 06:08 | 34.76770 | 136.02502 | 15552 ft | 456 kts | 96° |
| 2026-05-04 06:08 | 34.76955 | 136.06402 | 16079 ft | 466 kts | 89° |
| 2026-05-04 06:08 | 34.77253 | 136.10336 | 16621 ft | 469 kts | 89° |
| 2026-05-04 06:09 | 34.77550 | 136.14308 | 17123 ft | 474 kts | 89° |
| 2026-05-04 06:09 | 34.77843 | 136.18319 | 17653 ft | 479 kts | 89° |
| 2026-05-04 06:11 | 34.79883 | 136.47310 | 20828 ft | 504 kts | 90° |
| 2026-05-04 06:11 | 34.80179 | 136.51583 | 21379 ft | 510 kts | 91° |
| 2026-05-04 06:13 | 34.82259 | 136.82457 | 24037 ft | 534 kts | 92° |
| 2026-05-04 06:14 | 34.81465 | 137.09334 | 25931 ft | 533 kts | 107° |
| 2026-05-04 06:14 | 34.80965 | 137.13812 | 26263 ft | 535 kts | 107° |
| 2026-05-04 06:15 | 34.80463 | 137.18315 | 26570 ft | 538 kts | 107° |
| 2026-05-04 06:15 | 34.79957 | 137.22827 | 26717 ft | 538 kts | 107° |
| 2026-05-04 06:15 | 34.79460 | 137.27309 | 26727 ft | 532 kts | 107° |
| 2026-05-04 06:15 | 34.78966 | 137.31759 | 26751 ft | 529 kts | 107° |
| 2026-05-04 06:16 | 34.78466 | 137.36191 | 26743 ft | 528 kts | 107° |
| 2026-05-04 06:16 | 34.77959 | 137.40612 | 26744 ft | 528 kts | 108° |
| 2026-05-04 06:16 | 34.77449 | 137.45034 | 26741 ft | 528 kts | 108° |
| 2026-05-04 06:16 | 34.76940 | 137.49458 | 26736 ft | 528 kts | 108° |
| 2026-05-04 06:17 | 34.76431 | 137.53873 | 26742 ft | 528 kts | 108° |
| 2026-05-04 06:17 | 34.75921 | 137.58301 | 26739 ft | 527 kts | 108° |
| 2026-05-04 06:17 | 34.75413 | 137.62711 | 26741 ft | 527 kts | 107° |
| 2026-05-04 06:17 | 34.74903 | 137.67129 | 26737 ft | 527 kts | 108° |
| 2026-05-04 06:18 | 34.74406 | 137.71549 | 26738 ft | 528 kts | 107° |
| 2026-05-04 06:18 | 34.73952 | 137.75989 | 26720 ft | 529 kts | 106° |
| 2026-05-04 06:18 | 34.73537 | 137.80431 | 26702 ft | 529 kts | 105° |
| 2026-05-04 06:20 | 34.71468 | 138.11592 | 26668 ft | 534 kts | 97° |
| 2026-05-04 06:20 | 34.71489 | 138.16105 | 26673 ft | 534 kts | 97° |
| 2026-05-04 06:21 | 34.71551 | 138.34122 | 26700 ft | 531 kts | 97° |
| 2026-05-04 06:21 | 34.71560 | 138.38605 | 26693 ft | 530 kts | 97° |
| 2026-05-04 06:22 | 34.71566 | 138.43082 | 26592 ft | 530 kts | 97° |
| 2026-05-04 06:22 | 34.71571 | 138.47544 | 26331 ft | 526 kts | 97° |
| 2026-05-04 06:25 | 34.71481 | 139.03472 | 20514 ft | 476 kts | 97° |
| 2026-05-04 06:25 | 34.71461 | 139.07479 | 20067 ft | 471 kts | 97° |
| 2026-05-04 06:26 | 34.71441 | 139.11444 | 19611 ft | 467 kts | 97° |
| 2026-05-04 06:26 | 34.71422 | 139.15363 | 19334 ft | 458 kts | 98° |
| 2026-05-04 06:26 | 34.71402 | 139.19178 | 19080 ft | 449 kts | 98° |
| 2026-05-04 06:26 | 34.71375 | 139.22975 | 18538 ft | 450 kts | 98° |
| 2026-05-04 06:27 | 34.71254 | 139.38223 | 16305 ft | 449 kts | 98° |
| 2026-05-04 06:28 | 34.71214 | 139.41997 | 15824 ft | 446 kts | 99° |
| 2026-05-04 06:28 | 34.71061 | 139.45736 | 15348 ft | 440 kts | 102° |
| 2026-05-04 06:28 | 34.70799 | 139.49424 | 14877 ft | 435 kts | 104° |
| 2026-05-04 06:28 | 34.70475 | 139.53061 | 14410 ft | 432 kts | 105° |
| 2026-05-04 06:29 | 34.70129 | 139.56674 | 13935 ft | 429 kts | 105° |
| 2026-05-04 06:29 | 34.69794 | 139.60277 | 13462 ft | 428 kts | 105° |
| 2026-05-04 06:29 | 34.69481 | 139.63860 | 12941 ft | 426 kts | 104° |
| 2026-05-04 06:29 | 34.69193 | 139.67431 | 12533 ft | 420 kts | 104° |
| 2026-05-04 06:30 | 34.68935 | 139.70909 | 12419 ft | 407 kts | 104° |
| 2026-05-04 06:30 | 34.68690 | 139.74272 | 12289 ft | 394 kts | 104° |
| 2026-05-04 06:30 | 34.68443 | 139.77529 | 12154 ft | 381 kts | 104° |
| 2026-05-04 06:30 | 34.68195 | 139.80690 | 12012 ft | 370 kts | 105° |
| 2026-05-04 06:31 | 34.68068 | 139.83748 | 11889 ft | 367 kts | 94° |
| 2026-05-04 06:31 | 34.68528 | 139.86786 | 11761 ft | 366 kts | 75° |
| 2026-05-04 06:31 | 34.69601 | 139.89575 | 11481 ft | 364 kts | 59° |
| 2026-05-04 06:31 | 34.70910 | 139.92252 | 11189 ft | 361 kts | 59° |
| 2026-05-04 06:32 | 34.72183 | 139.94858 | 10994 ft | 358 kts | 59° |
| 2026-05-04 06:33 | 34.80866 | 140.12845 | 9653 ft | 348 kts | 59° |
| 2026-05-04 06:34 | 34.82087 | 140.15384 | 9425 ft | 346 kts | 59° |
| 2026-05-04 06:34 | 34.83297 | 140.17904 | 9255 ft | 339 kts | 59° |
| 2026-05-04 06:34 | 34.84465 | 140.20342 | 9128 ft | 329 kts | 59° |
| 2026-05-04 06:34 | 34.85610 | 140.22727 | 9000 ft | 325 kts | 59° |
| 2026-05-04 06:35 | 34.86734 | 140.25102 | 8874 ft | 323 kts | 63° |
| 2026-05-04 06:36 | 34.81227 | 140.35747 | 8052 ft | 208 kts | 197° |
| 2026-05-04 06:37 | 34.79842 | 140.35496 | 7938 ft | 197 kts | 208° |
| 2026-05-04 06:37 | 34.78595 | 140.34900 | 7812 ft | 189 kts | 218° |
| 2026-05-04 06:37 | 34.77527 | 140.34021 | 7685 ft | 183 kts | 227° |
| 2026-05-04 06:37 | 34.76655 | 140.32912 | 7569 ft | 180 kts | 237° |
| 2026-05-04 06:38 | 34.75969 | 140.31643 | 7444 ft | 179 kts | 241° |
| 2026-05-04 06:38 | 34.75353 | 140.30347 | 7324 ft | 179 kts | 242° |
| 2026-05-04 06:40 | 34.71685 | 140.20817 | 6483 ft | 182 kts | 263° |
| 2026-05-04 06:40 | 34.71774 | 140.19272 | 6352 ft | 186 kts | 272° |
| 2026-05-04 06:40 | 34.72133 | 140.17739 | 6244 ft | 192 kts | 283° |
| 2026-05-04 06:40 | 34.72784 | 140.16285 | 6121 ft | 201 kts | 294° |
| 2026-05-04 06:41 | 34.73736 | 140.14995 | 5998 ft | 211 kts | 306° |
| 2026-05-04 06:41 | 34.74988 | 140.13963 | 5869 ft | 225 kts | 320° |
| 2026-05-04 06:41 | 34.76510 | 140.13319 | 5741 ft | 240 kts | 335° |
| 2026-05-04 06:41 | 34.78224 | 140.13201 | 5605 ft | 256 kts | 353° |
| 2026-05-04 06:42 | 34.80003 | 140.13734 | 5478 ft | 272 kts | 14° |
| 2026-05-04 06:42 | 34.81641 | 140.14976 | 5352 ft | 284 kts | 36° |
| 2026-05-04 06:42 | 34.82918 | 140.16837 | 5228 ft | 289 kts | 54° |
| 2026-05-04 06:44 | 34.93709 | 140.24397 | 5167 ft | 265 kts | 345° |
| 2026-05-04 06:44 | 34.95554 | 140.24301 | 5168 ft | 265 kts | 346° |
| 2026-05-04 06:44 | 34.97397 | 140.24210 | 5154 ft | 265 kts | 346° |
| 2026-05-04 06:45 | 34.99240 | 140.24117 | 5156 ft | 265 kts | 346° |
| 2026-05-04 06:45 | 35.01085 | 140.24020 | 5154 ft | 265 kts | 346° |
| 2026-05-04 06:45 | 35.02926 | 140.23921 | 5154 ft | 265 kts | 346° |
| 2026-05-04 06:45 | 35.04794 | 140.23823 | 5134 ft | 265 kts | 345° |
| 2026-05-04 06:46 | 35.06614 | 140.23727 | 5136 ft | 265 kts | 345° |
| 2026-05-04 06:46 | 35.08452 | 140.23628 | 5144 ft | 265 kts | 345° |
| 2026-05-04 06:46 | 35.10293 | 140.23529 | 5136 ft | 264 kts | 345° |
| 2026-05-04 06:46 | 35.12130 | 140.23428 | 5122 ft | 264 kts | 345° |
| 2026-05-04 06:48 | 35.25047 | 140.22718 | 5098 ft | 266 kts | 346° |
| 2026-05-04 06:48 | 35.26902 | 140.22619 | 5106 ft | 266 kts | 346° |
| 2026-05-04 06:49 | 35.28732 | 140.22523 | 5087 ft | 261 kts | 346° |
| 2026-05-04 06:50 | 35.41162 | 140.21227 | 5063 ft | 251 kts | 338° |
| 2026-05-04 06:51 | 35.42880 | 140.20853 | 5049 ft | 251 kts | 339° |
| 2026-05-04 06:51 | 35.44599 | 140.20478 | 5046 ft | 251 kts | 339° |
| 2026-05-04 06:51 | 35.46335 | 140.20098 | 5055 ft | 254 kts | 341° |
| 2026-05-04 06:51 | 35.48088 | 140.19713 | 5053 ft | 257 kts | 341° |
| 2026-05-04 06:52 | 35.49844 | 140.19329 | 5040 ft | 257 kts | 341° |
| 2026-05-04 06:52 | 35.51598 | 140.18950 | 5032 ft | 254 kts | 341° |
| 2026-05-04 06:52 | 35.53335 | 140.18577 | 5033 ft | 254 kts | 341° |
| 2026-05-04 06:52 | 35.55076 | 140.18200 | 5032 ft | 254 kts | 341° |
| 2026-05-04 06:53 | 35.56815 | 140.17820 | 5024 ft | 253 kts | 340° |
| 2026-05-04 06:53 | 35.58547 | 140.17440 | 5027 ft | 253 kts | 341° |
| 2026-05-04 06:53 | 35.60275 | 140.17061 | 5024 ft | 252 kts | 340° |
| 2026-05-04 06:53 | 35.62003 | 140.16682 | 5020 ft | 252 kts | 340° |
| 2026-05-04 06:54 | 35.63729 | 140.16303 | 5031 ft | 252 kts | 343° |
| 2026-05-04 06:54 | 35.65462 | 140.15924 | 5027 ft | 254 kts | 343° |
| 2026-05-04 06:54 | 35.67190 | 140.15489 | 5021 ft | 251 kts | 336° |
| 2026-05-04 06:54 | 35.68782 | 140.14653 | 5016 ft | 248 kts | 328° |
| 2026-05-04 06:55 | 35.70346 | 140.13766 | 5016 ft | 247 kts | 329° |
| 2026-05-04 06:55 | 35.71906 | 140.12885 | 5025 ft | 246 kts | 328° |
| 2026-05-04 06:55 | 35.73460 | 140.12007 | 5025 ft | 246 kts | 328° |
| 2026-05-04 06:55 | 35.75012 | 140.11130 | 5026 ft | 245 kts | 328° |
| 2026-05-04 06:56 | 35.76562 | 140.10251 | 5033 ft | 246 kts | 329° |
| 2026-05-04 06:57 | 35.80790 | 140.00380 | 5021 ft | 210 kts | 246° |
| 2026-05-04 06:58 | 35.80170 | 139.98751 | 5034 ft | 210 kts | 246° |
| 2026-05-04 06:58 | 35.79365 | 139.97269 | 5050 ft | 205 kts | 226° |
| 2026-05-04 06:58 | 35.78253 | 139.96240 | 4927 ft | 196 kts | 220° |
| 2026-05-04 06:58 | 35.77149 | 139.95294 | 4700 ft | 191 kts | 220° |
| 2026-05-04 06:59 | 35.76058 | 139.94353 | 4465 ft | 191 kts | 220° |
| 2026-05-04 06:59 | 35.74971 | 139.93413 | 4216 ft | 190 kts | 220° |
| 2026-05-04 06:59 | 35.73895 | 139.92485 | 3973 ft | 187 kts | 220° |
| 2026-05-04 06:59 | 35.72846 | 139.91579 | 3725 ft | 183 kts | 220° |
| 2026-05-04 07:01 | 35.66157 | 139.85812 | 2208 ft | 133 kts | 217° |
| 2026-05-04 07:01 | 35.65410 | 139.85167 | 2052 ft | 127 kts | 217° |
| 2026-05-04 07:02 | 35.64690 | 139.84547 | 1881 ft | 125 kts | 217° |
| 2026-05-04 07:02 | 35.63990 | 139.83944 | 1712 ft | 124 kts | 216° |
| 2026-05-04 07:02 | 35.63281 | 139.83333 | 1549 ft | 124 kts | 215° |
| 2026-05-04 07:02 | 35.62576 | 139.82726 | 1381 ft | 124 kts | 215° |
| 2026-05-04 07:03 | 35.61868 | 139.82116 | 1220 ft | 124 kts | 217° |
| 2026-05-04 07:03 | 35.61161 | 139.81508 | 1039 ft | 124 kts | 215° |
| 2026-05-04 07:03 | 35.60453 | 139.80899 | 891 ft | 123 kts | 214° |
| 2026-05-04 07:03 | 35.59755 | 139.80299 | 733 ft | 122 kts | 214° |
| 2026-05-04 07:04 | 35.59058 | 139.79700 | 604 ft | 124 kts | 213° |
| 2026-05-04 07:04 | 35.58352 | 139.79093 | 456 ft | 123 kts | 212° |
| 2026-05-04 07:04 | 35.57660 | 139.78498 | 313 ft | 120 kts | 212° |
| 2026-05-04 07:04 | 35.56966 | 139.77895 | 146 ft | 124 kts | 213° |
| 2026-05-04 07:05 | 35.56274 | 139.77303 | 34 ft | 114 kts | 213° |
| 2026-05-04 07:05 | 35.55763 | 139.76864 | 29 ft | 51 kts | 215° |
| 2026-05-04 07:05 | 35.55599 | 139.76724 | 28 ft | 20 kts | 216° |
| 2026-05-04 07:05 | 35.55505 | 139.76610 | 29 ft | 19 kts | 230° |
| 2026-05-04 07:06 | 35.55471 | 139.76333 | 25 ft | 16 kts | 313° |
| 2026-05-04 07:06 | 35.55560 | 139.76334 | 24 ft | 14 kts | 39° |
| 2026-05-04 07:06 | 35.55628 | 139.76420 | 23 ft | 14 kts | 48° |
| 2026-05-04 07:07 | 35.55694 | 139.76509 | 23 ft | 14 kts | 46° |
| 2026-05-04 07:08 | 35.55835 | 139.77227 | 23 ft | 16 kts | 82° |
| 2026-05-04 07:09 | 35.55843 | 139.77358 | 23 ft | 14 kts | 90° |
| 2026-05-04 07:09 | 35.55817 | 139.77450 | 23 ft | 10 kts | 89° |
| 2026-05-04 07:09 | 35.55844 | 139.77524 | 25 ft | 9 kts | 58° |
| 2026-05-04 07:09 | 35.55862 | 139.77561 | 23 ft | 0 kts | 59° |
| 2026-05-04 07:10 | 35.55863 | 139.77563 | 23 ft | 1 kts | 60° |
| 2026-05-04 07:12 | 35.55822 | 139.77633 | 24 ft | 0 kts | 58° |